Time;durP1;ratioP1;P1;durP2;ratioP2;P2;SDS_P1;SDS_P2;PMS_P1;PMS_P2;Temp;Humidity;BMP_temperature;BMP_pressure;BME280_temperature;BME280_humidity;BME280_pressure;Samples;Min_cycle;Max_cycle;Signal;HPM_P1;HPM_P2
2022/04/20 00:01:26;;;;;;;1.10;0.90;;;;;;;19.10;43.17;101679.78;5133916;28;20472;-55
2022/04/20 00:03:52;;;;;;;1.25;1.05;;;;;;;19.18;43.68;101696.06;5143844;28;20127;-52
2022/04/20 00:06:17;;;;;;;1.48;1.13;;;;;;;19.15;43.08;101682.03;5145394;27;20039;-54
2022/04/20 00:08:42;;;;;;;1.42;1.17;;;;;;;19.14;43.31;101694.66;5146988;27;20031;-53
2022/04/20 00:11:08;;;;;;;1.65;1.35;;;;;;;19.10;43.29;101687.88;5147228;27;20027;-53
2022/04/20 00:13:34;;;;;;;1.73;0.95;;;;;;;19.19;43.32;101697.75;5128476;27;20361;-53
2022/04/20 00:15:59;;;;;;;1.10;0.90;;;;;;;19.19;43.04;101696.91;5147516;27;20038;-53
2022/04/20 00:18:24;;;;;;;1.48;1.13;;;;;;;19.10;43.12;101674.41;5128964;27;20030;-54
2022/04/20 00:20:49;;;;;;;2.53;1.00;;;;;;;19.19;42.94;101688.81;5128878;27;20045;-52
2022/04/20 00:23:15;;;;;;;1.40;1.10;;;;;;;19.18;43.00;101696.06;5146601;27;20110;-55
2022/04/20 00:25:40;;;;;;;1.20;1.05;;;;;;;19.18;42.99;101692.50;5147223;27;20751;-53
2022/04/20 00:28:05;;;;;;;1.20;0.90;;;;;;;19.18;42.75;101692.50;5146231;27;20019;-54
2022/04/20 00:30:31;;;;;;;1.48;1.10;;;;;;;19.18;42.96;101695.22;5128793;27;20030;-54
2022/04/20 00:32:56;;;;;;;1.70;1.30;;;;;;;19.17;43.02;101693.53;5147012;27;20027;-54
2022/04/20 00:35:21;;;;;;;1.20;1.00;;;;;;;19.08;42.95;101680.97;5128797;27;20027;-55
2022/04/20 00:37:47;;;;;;;1.13;1.02;;;;;;;19.08;42.66;101686.34;5146787;27;20494;-52
2022/04/20 00:40:13;;;;;;;1.33;1.00;;;;;;;19.16;42.70;101702.63;5146359;27;20051;-54
2022/04/20 00:42:40;;;;;;;1.08;0.82;;;;;;;19.08;42.66;101691.75;5122297;27;20031;-52
2022/04/20 00:45:07;;;;;;;1.35;1.10;;;;;;;19.17;42.85;101709.69;5132158;27;20011;-53
2022/04/20 00:47:35;;;;;;;1.33;1.13;;;;;;;19.17;42.88;101707.00;5146981;27;20023;-53
2022/04/20 00:50:01;;;;;;;0.93;0.90;;;;;;;19.01;42.86;101685.25;5145610;27;20030;-51
2022/04/20 00:52:26;;;;;;;1.40;1.05;;;;;;;19.07;42.84;101698.09;5146776;27;20050;-52
2022/04/20 00:54:51;;;;;;;1.20;1.02;;;;;;;19.15;42.45;101711.69;5121470;27;20027;-54
2022/04/20 00:57:16;;;;;;;1.17;0.90;;;;;;;19.13;42.74;101708.31;5127738;27;20035;-51
2022/04/20 00:59:43;;;;;;;0.95;0.80;;;;;;;19.14;42.78;101720.78;5146492;27;20091;-55
2022/04/20 01:02:08;;;;;;;0.98;0.88;;;;;;;19.13;42.72;101711.00;5146651;27;20030;-54
2022/04/20 01:04:33;;;;;;;1.10;1.00;;;;;;;19.11;42.66;101705.72;5128053;27;20019;-53
2022/04/20 01:07:19;;;;;;;1.52;1.00;;;;;;;19.14;42.51;101712.69;5146410;27;20031;-54
2022/04/20 01:09:45;;;;;;;1.02;0.88;;;;;;;19.12;42.64;101714.69;5109761;27;20039;-53
2022/04/20 01:12:12;;;;;;;0.80;0.80;;;;;;;19.12;42.40;101712.00;5127492;27;20040;-53
2022/04/20 01:14:37;;;;;;;0.95;0.90;;;;;;;19.12;42.33;101712.00;5110406;27;20039;-53
2022/04/20 01:17:03;;;;;;;1.05;0.80;;;;;;;19.11;42.52;101711.13;5127586;27;20128;-53
2022/04/20 01:19:33;;;;;;;1.05;0.80;;;;;;;19.02;42.40;101695.03;5127876;27;20038;-53
2022/04/20 01:22:00;;;;;;;0.90;0.80;;;;;;;19.01;42.47;101690.63;5127223;27;20577;-50
2022/04/20 01:24:25;;;;;;;1.17;0.88;;;;;;;19.10;42.07;101708.59;5125208;28;20030;-54
2022/04/20 01:26:50;;;;;;;0.88;0.88;;;;;;;19.07;42.35;101698.09;5106848;28;20029;-52
2022/04/20 01:29:18;;;;;;;1.63;1.05;;;;;;;19.10;42.43;101711.28;5125028;28;20053;-50
2022/04/20 01:31:43;;;;;;;0.98;0.80;;;;;;;19.09;42.35;101709.59;5106709;28;20055;-51
2022/04/20 01:34:08;;;;;;;1.00;0.90;;;;;;;19.08;42.18;101711.44;5125296;28;20049;-53
2022/04/20 01:36:34;;;;;;;1.10;1.00;;;;;;;18.96;42.25;101689.25;5106681;28;20043;-52
2022/04/20 01:38:59;;;;;;;0.80;0.80;;;;;;;19.08;42.44;101708.75;5121400;27;20039;-53
2022/04/20 01:41:24;;;;;;;1.25;0.88;;;;;;;18.96;42.27;101686.53;5145318;27;20027;-51
2022/04/20 01:43:49;;;;;;;0.90;0.90;;;;;;;19.05;42.37;101703.66;5144930;27;20052;-51
2022/04/20 01:46:15;;;;;;;0.80;0.80;;;;;;;19.06;42.05;101710.75;5145819;27;20019;-54
2022/04/20 01:48:41;;;;;;;1.13;1.00;;;;;;;19.06;42.25;101704.50;5137220;27;20121;-52
2022/04/20 01:53:50;;;;;;;0.90;0.70;;;;;;;18.93;42.04;101694.91;5145270;27;20044;-51
2022/04/20 01:56:15;;;;;;;1.13;0.80;;;;;;;19.02;41.98;101703.94;5145204;27;20027;-49
2022/04/20 01:58:40;;;;;;;1.17;0.90;;;;;;;19.03;41.96;101704.78;5144997;27;20369;-52
2022/04/20 02:02:34;;;;;;;0.90;0.85;;;;;;;18.94;41.81;101693.06;5145038;27;20574;-50
2022/04/20 02:03:51;;;;;;;0.70;0.70;;;;;;;18.97;42.10;101701.72;5145333;27;20038;-53
2022/04/20 02:06:16;;;;;;;0.70;0.70;;;;;;;19.01;42.13;101710.34;5145366;27;20049;-50
2022/04/20 02:08:42;;;;;;;0.80;0.70;;;;;;;18.92;42.01;101703.16;5144403;27;20197;-53
2022/04/20 02:11:07;;;;;;;0.98;0.82;;;;;;;18.90;42.00;101700.63;5144897;27;20023;-52
2022/04/20 02:13:32;;;;;;;0.73;0.70;;;;;;;18.99;41.87;101715.06;5144259;27;20125;-50
2022/04/20 02:15:58;;;;;;;0.70;0.70;;;;;;;18.96;41.79;101709.94;5126703;27;20079;-48
2022/04/20 02:18:23;;;;;;;0.73;0.73;;;;;;;18.89;41.76;101706.16;5144444;27;20031;-54
2022/04/20 02:20:48;;;;;;;0.60;0.60;;;;;;;18.97;41.77;101715.19;5126591;27;20023;-52
2022/04/20 02:23:13;;;;;;;0.88;0.80;;;;;;;18.87;41.82;101705.47;5109215;27;20038;-53
2022/04/20 02:25:39;;;;;;;0.93;0.88;;;;;;;18.96;41.77;101721.56;5126503;27;20031;-48
2022/04/20 02:28:04;;;;;;;0.70;0.70;;;;;;;18.96;42.04;101726.97;5144089;27;20090;-50
2022/04/20 02:30:29;;;;;;;1.35;0.88;;;;;;;18.86;42.04;101703.75;5143868;27;20102;-50
2022/04/20 02:32:54;;;;;;;0.80;0.70;;;;;;;18.95;41.71;101727.13;5125812;27;20027;-51
2022/04/20 02:35:20;;;;;;;1.05;0.77;;;;;;;18.94;41.71;101715.47;5144865;27;20027;-50
2022/04/20 02:37:45;;;;;;;0.95;0.68;;;;;;;18.93;41.64;101721.88;5144572;27;20039;-51
2022/04/20 02:40:11;;;;;;;0.77;0.70;;;;;;;18.91;41.91;101709.56;5125894;27;20069;-55
2022/04/20 02:42:36;;;;;;;0.70;0.70;;;;;;;18.84;41.78;101703.91;5125347;28;20045;-47
2022/04/20 02:45:01;;;;;;;0.70;0.70;;;;;;;18.92;41.52;101717.47;5129052;27;20031;-53
2022/04/20 02:47:27;;;;;;;1.02;0.85;;;;;;;18.91;41.76;101717.63;5132126;27;20121;-50
2022/04/20 02:49:52;;;;;;;0.85;0.70;;;;;;;18.91;41.83;101717.63;5124217;28;20034;-52
2022/04/20 02:52:17;;;;;;;0.80;0.70;;;;;;;18.90;41.55;101713.22;5123761;28;20024;-53
2022/04/20 02:54:42;;;;;;;0.90;0.70;;;;;;;18.90;41.49;101719.50;5123805;28;20057;-50
2022/04/20 02:57:08;;;;;;;0.77;0.60;;;;;;;18.80;41.54;101701.66;5105384;28;20028;-49
2022/04/20 02:59:33;;;;;;;1.08;0.85;;;;;;;18.88;41.58;101726.84;5105420;28;20034;-50
2022/04/20 03:01:58;;;;;;;0.77;0.70;;;;;;;18.88;41.51;101723.31;5088479;28;20027;-53
2022/04/20 03:04:24;;;;;;;0.65;0.65;;;;;;;18.78;41.52;101712.59;5105595;28;20068;-52
2022/04/20 03:06:49;;;;;;;0.80;0.70;;;;;;;18.85;41.96;101732.53;5123843;28;20054;-49
2022/04/20 03:09:14;;;;;;;0.70;0.70;;;;;;;18.77;41.48;101716.25;5136546;28;20096;-48
2022/04/20 03:11:40;;;;;;;1.00;0.70;;;;;;;18.76;41.58;101717.25;5143807;28;20031;-50
2022/04/20 03:14:05;;;;;;;0.70;0.70;;;;;;;18.86;41.14;101736.06;5108386;28;20027;-52
2022/04/20 03:16:32;;;;;;;0.70;0.70;;;;;;;18.77;41.47;101720.81;5125730;28;20038;-49
2022/04/20 03:18:57;;;;;;;0.70;0.70;;;;;;;18.73;41.19;101715.72;5125756;28;20071;-50
2022/04/20 03:21:22;;;;;;;0.85;0.80;;;;;;;18.82;41.27;101730.16;5125627;28;20027;-51
2022/04/20 03:23:48;;;;;;;0.70;0.70;;;;;;;18.84;41.42;101733.53;5125575;28;20488;-49
2022/04/20 03:26:13;;;;;;;0.85;0.70;;;;;;;18.81;41.16;101732.97;5125582;28;20055;-52
2022/04/20 03:28:38;;;;;;;0.80;0.80;;;;;;;18.82;40.92;101740.94;5143720;28;20034;-51
2022/04/20 03:31:04;;;;;;;0.75;0.60;;;;;;;18.70;41.22;101717.88;5125612;28;20092;-53
2022/04/20 03:33:30;;;;;;;1.52;0.70;;;;;;;18.70;41.46;101717.88;5125877;28;20038;-51
2022/04/20 03:35:55;;;;;;;0.60;0.60;;;;;;;18.79;41.17;101745.75;5125692;28;20035;-52
2022/04/20 03:38:21;;;;;;;0.63;0.63;;;;;;;18.80;41.00;101742.06;5125151;28;20349;-50
2022/04/20 03:40:46;;;;;;;0.60;0.60;;;;;;;18.79;41.03;101743.06;5126568;27;20101;-51
2022/04/20 03:43:12;;;;;;;0.82;0.82;;;;;;;18.78;41.03;101744.91;5146503;27;20092;-50
2022/04/20 03:45:37;;;;;;;0.80;0.80;;;;;;;18.78;41.11;101739.53;5148234;27;20472;-48
2022/04/20 03:48:04;;;;;;;0.60;0.60;;;;;;;18.77;40.98;101747.75;5147687;27;20062;-52
2022/04/20 03:50:30;;;;;;;0.80;0.80;;;;;;;18.66;41.40;101733.44;5129750;27;20020;-51
2022/04/20 03:52:55;;;;;;;0.90;0.77;;;;;;;18.66;41.20;101735.28;5129421;27;20030;-51
2022/04/20 03:55:20;;;;;;;0.75;0.75;;;;;;;18.64;41.28;101731.88;5147914;27;20037;-53
2022/04/20 03:57:45;;;;;;;0.80;0.70;;;;;;;18.73;41.03;101748.06;5111231;27;20111;-56
2022/04/20 04:00:12;;;;;;;1.02;0.82;;;;;;;18.72;41.13;101750.88;5148183;27;20101;-53
2022/04/20 04:02:37;;;;;;;0.85;0.60;;;;;;;18.73;40.96;101752.56;5147453;27;20030;-52
2022/04/20 04:05:03;;;;;;;0.60;0.60;;;;;;;18.72;40.98;101754.41;5129407;27;20023;-53
2022/04/20 04:07:28;;;;;;;0.60;0.60;;;;;;;18.72;41.11;101758.97;5129150;27;20494;-54
2022/04/20 04:09:53;;;;;;;0.55;0.55;;;;;;;18.71;40.88;101758.13;5128944;27;20090;-48
2022/04/20 04:12:24;;;;;;;0.98;0.73;;;;;;;18.72;40.92;101757.13;5128604;27;20015;-50
2022/04/20 04:14:50;;;;;;;1.00;0.80;;;;;;;18.69;40.92;101749.34;5128412;27;20015;-52
2022/04/20 04:17:15;;;;;;;0.55;0.55;;;;;;;18.69;40.86;101756.53;5128956;27;20075;-53
2022/04/20 04:19:40;;;;;;;0.63;0.63;;;;;;;18.58;40.87;101740.56;5147513;27;20026;-50
2022/04/20 04:22:06;;;;;;;0.93;0.70;;;;;;;18.68;41.03;101758.38;5128412;27;20114;-52
2022/04/20 04:24:34;;;;;;;0.63;0.63;;;;;;;18.67;40.72;101756.69;5128769;27;20079;-51
2022/04/20 04:27:00;;;;;;;0.80;0.80;;;;;;;18.67;40.97;101766.59;5111225;27;20034;-50
2022/04/20 04:29:25;;;;;;;0.70;0.70;;;;;;;18.58;40.75;101754.88;5128412;27;20031;-51
2022/04/20 04:31:51;;;;;;;0.50;0.50;;;;;;;18.66;41.04;101773.00;5128448;27;20031;-54
2022/04/20 04:34:16;;;;;;;1.00;0.70;;;;;;;18.65;40.66;101769.47;5128747;27;20015;-49
2022/04/20 04:36:43;;;;;;;0.60;0.60;;;;;;;18.64;40.77;101773.13;5147161;27;20461;-52
2022/04/20 04:39:08;;;;;;;2.67;0.95;;;;;;;18.64;40.73;101775.81;5146657;27;20026;-49
2022/04/20 04:41:33;;;;;;;0.90;0.70;;;;;;;18.54;40.82;101758.00;5128212;27;20027;-52
2022/04/20 04:43:59;;;;;;;0.95;0.73;;;;;;;18.63;40.58;101773.28;5127925;27;20020;-50
2022/04/20 04:49:08;;;;;;;0.60;0.60;;;;;;;18.61;40.62;101773.44;5147211;27;20063;-50
2022/04/20 04:51:33;;;;;;;0.80;0.80;;;;;;;18.53;40.24;101750.91;5146915;27;20062;-49
2022/04/20 04:53:58;;;;;;;0.90;0.80;;;;;;;18.60;40.58;101769.03;5145648;27;20031;-51
2022/04/20 04:56:23;;;;;;;1.23;0.77;;;;;;;18.60;40.74;101769.03;5145399;27;20045;-51
2022/04/20 04:58:49;;;;;;;1.17;0.80;;;;;;;18.59;40.53;101769.19;5145090;27;20031;-51
2022/04/20 05:01:14;;;;;;;0.75;0.60;;;;;;;18.59;40.59;101774.56;5146751;27;20023;-50
2022/04/20 05:03:39;;;;;;;0.60;0.60;;;;;;;18.48;40.49;101754.06;5128078;27;20041;-48
2022/04/20 05:06:04;;;;;;;0.93;0.60;;;;;;;18.60;40.45;101773.56;5118953;27;20083;-49
2022/04/20 05:08:30;;;;;;;0.93;0.70;;;;;;;18.57;40.36;101773.88;5125236;28;20027;-50
2022/04/20 05:10:55;;;;;;;0.90;0.65;;;;;;;18.58;40.96;101776.41;5107335;28;20092;-52
2022/04/20 05:13:20;;;;;;;0.60;0.60;;;;;;;18.49;40.55;101756.59;5123402;28;20396;-53
2022/04/20 05:15:45;;;;;;;0.60;0.60;;;;;;;18.59;40.62;101786.19;5107377;28;20039;-53
2022/04/20 05:18:11;;;;;;;0.68;0.68;;;;;;;18.59;40.59;101778.09;5125280;28;20027;-49
2022/04/20 05:20:36;;;;;;;0.60;0.60;;;;;;;18.50;40.70;101773.59;5107011;28;20023;-49
2022/04/20 05:23:01;;;;;;;0.68;0.68;;;;;;;18.58;40.67;101789.88;5106547;28;20031;-49
2022/04/20 05:25:27;;;;;;;0.70;0.70;;;;;;;18.58;41.02;101786.34;5123996;28;20083;-48
2022/04/20 05:27:52;;;;;;;0.60;0.60;;;;;;;18.47;40.72;101777.41;5111404;27;20019;-49
2022/04/20 05:30:17;;;;;;;0.70;0.70;;;;;;;18.57;41.02;101788.19;5113356;28;20023;-51
2022/04/20 05:32:42;;;;;;;0.70;0.70;;;;;;;18.56;40.74;101785.63;5125066;27;20114;-48
2022/04/20 05:35:09;;;;;;;0.57;0.57;;;;;;;18.53;40.91;101786.78;5125178;28;20066;-49
2022/04/20 05:43:06;;;;;;;1.00;0.68;;;;;;;18.54;41.23;101782.22;5066106;28;20036;-50
2022/04/20 05:45:32;;;;;;;0.82;0.82;;;;;;;18.46;41.05;101778.41;5070580;28;20029;-51
2022/04/20 05:47:58;;;;;;;0.68;0.60;;;;;;;18.55;41.21;101792.00;5061168;28;20058;-50
2022/04/20 05:50:24;;;;;;;1.08;0.93;;;;;;;18.55;40.97;101786.63;5061138;28;20151;-50
2022/04/20 05:52:49;;;;;;;0.82;0.75;;;;;;;18.54;41.27;101788.47;5044267;28;20021;-48
2022/04/20 05:55:14;;;;;;;0.65;0.65;;;;;;;18.55;41.10;101787.47;5064006;28;20067;-48
2022/04/20 05:57:40;;;;;;;0.93;0.60;;;;;;;18.54;41.32;101777.69;5060861;28;20036;-52
2022/04/20 06:00:06;;;;;;;0.90;0.70;;;;;;;18.55;41.34;101784.78;5076955;28;20100;-50
2022/04/20 06:02:33;;;;;;;0.68;0.68;;;;;;;18.47;41.14;101763.09;5070712;28;20119;-52
2022/04/20 06:05:01;;;;;;;0.98;0.70;;;;;;;18.44;41.42;101752.66;5060088;28;20127;-50
2022/04/20 06:07:27;;;;;;;0.65;0.65;;;;;;;18.55;41.43;101776.69;5058924;28;20047;-58
2022/04/20 06:09:52;;;;;;;1.08;0.80;;;;;;;18.48;41.37;101776.44;5060480;28;20021;-53
2022/04/20 06:12:17;;;;;;;0.70;0.70;;;;;;;18.56;41.55;101769.47;5061182;28;20492;-56
2022/04/20 06:14:43;;;;;;;0.70;0.70;;;;;;;18.54;41.69;101780.38;5077919;28;20044;-56
2022/04/20 06:17:08;;;;;;;1.38;0.68;;;;;;;18.56;41.67;101783.78;5061235;28;20111;-56
2022/04/20 06:19:34;;;;;;;0.70;0.70;;;;;;;18.56;41.93;101785.63;5074591;27;20086;-56
2022/04/20 06:21:59;;;;;;;1.17;0.90;;;;;;;18.57;41.98;101784.66;5122449;27;20067;-55
2022/04/20 06:24:24;;;;;;;0.75;0.70;;;;;;;18.57;41.75;101782.81;5142131;27;20027;-59
2022/04/20 06:26:50;;;;;;;0.65;0.65;;;;;;;18.58;41.98;101787.19;5142152;27;20022;-56
2022/04/20 06:29:15;;;;;;;1.15;1.05;;;;;;;18.57;41.93;101772.03;5107201;27;20056;-57
2022/04/20 06:31:42;;;;;;;0.65;0.65;;;;;;;18.58;41.92;101783.66;5138002;27;20415;-56
2022/04/20 06:34:07;;;;;;;1.05;0.95;;;;;;;18.58;42.36;101773.72;5142345;27;20023;-44
2022/04/20 06:36:32;;;;;;;0.80;0.80;;;;;;;18.59;42.14;101785.34;5140839;27;20046;-51
2022/04/20 06:38:58;;;;;;;0.88;0.70;;;;;;;18.60;42.18;101773.56;5143842;27;20027;-49
2022/04/20 06:41:24;;;;;;;1.00;0.80;;;;;;;18.62;42.09;101779.66;5130502;27;20038;-51
2022/04/20 06:43:49;;;;;;;1.50;1.20;;;;;;;18.52;40.76;101755.47;5098127;27;20038;-48
2022/04/20 06:46:15;;;;;;;1.60;1.40;;;;;;;18.57;40.44;101769.34;5144085;27;20113;-48
2022/04/20 06:48:40;;;;;;;1.20;1.10;;;;;;;18.46;40.78;101754.19;5144742;27;20031;-52
2022/04/20 06:51:05;;;;;;;0.95;0.90;;;;;;;18.56;40.68;101772.16;5143832;27;20597;-49
2022/04/20 06:59:12;;;;;;;1.02;0.93;;;;;;;18.58;40.90;101775.56;5047884;28;20077;-47
2022/04/20 07:01:37;;;;;;;2.05;1.00;;;;;;;18.62;41.16;101783.22;5060127;28;20028;-48
2022/04/20 07:04:02;;;;;;;1.10;0.98;;;;;;;18.51;41.17;101760.97;5060403;28;20032;-49
2022/04/20 07:06:28;;;;;;;0.80;0.80;;;;;;;18.65;41.01;101784.78;5060779;28;20025;-46
2022/04/20 07:08:53;;;;;;;1.23;1.00;;;;;;;18.66;41.21;101784.63;5043431;28;20080;-46
2022/04/20 07:11:19;;;;;;;1.23;0.85;;;;;;;18.63;41.17;101786.75;5043855;28;20025;-47
2022/04/20 07:13:46;;;;;;;1.08;0.90;;;;;;;18.61;41.03;101769.91;5058915;28;20092;-46
2022/04/20 07:16:11;;;;;;;1.65;0.90;;;;;;;18.62;41.22;101768.91;5062205;28;20029;-46
2022/04/20 07:18:36;;;;;;;0.80;0.80;;;;;;;18.69;41.12;101781.66;5064677;28;20609;-47
2022/04/20 07:21:03;;;;;;;0.80;0.80;;;;;;;18.71;41.24;101790.44;5047750;28;20029;-47
2022/04/20 07:23:28;;;;;;;0.85;0.80;;;;;;;18.62;41.26;101772.44;5063704;28;20025;-47
2022/04/20 07:25:53;;;;;;;1.02;0.80;;;;;;;18.63;41.09;101786.75;5064534;28;20057;-48
2022/04/20 07:28:19;;;;;;;1.20;0.63;;;;;;;18.63;40.96;101778.66;5063436;28;20033;-48
2022/04/20 07:30:44;;;;;;;1.38;1.05;;;;;;;18.73;40.91;101793.84;5064484;28;20040;-48
2022/04/20 07:33:09;;;;;;;1.25;1.15;;;;;;;18.65;40.91;101791.00;5046173;28;20093;-48
2022/04/20 07:35:35;;;;;;;0.70;0.70;;;;;;;18.63;40.78;101787.59;5123268;27;20042;-48
2022/04/20 07:38:00;;;;;;;1.23;0.85;;;;;;;18.72;41.06;101808.28;5129684;27;20082;-51
2022/04/20 07:40:25;;;;;;;0.77;0.75;;;;;;;18.62;41.13;101785.91;5113777;28;20498;-46
2022/04/20 07:42:53;;;;;;;0.88;0.77;;;;;;;18.68;40.96;101800.63;5110896;27;20429;-48
2022/04/20 07:45:19;;;;;;;1.15;0.90;;;;;;;18.73;41.03;101814.53;5135399;27;20083;-49
2022/04/20 07:47:44;;;;;;;1.25;0.80;;;;;;;18.64;40.83;101796.53;5147597;27;20031;-52
2022/04/20 07:50:18;;;;;;;0.70;0.70;;;;;;;18.74;40.81;101805.47;5147293;27;20432;-49
2022/04/20 07:52:46;;;;;;;1.48;0.95;;;;;;;18.74;41.17;101818.94;5146490;27;20076;-49
2022/04/20 07:55:13;;;;;;;1.08;0.77;;;;;;;18.73;40.80;101810.03;5147948;27;20029;-49
2022/04/20 07:57:38;;;;;;;0.98;0.88;;;;;;;18.73;40.72;101815.41;5146071;27;20099;-51
2022/04/20 08:00:05;;;;;;;0.90;0.90;;;;;;;18.73;40.93;101818.09;5148178;27;20027;-48
2022/04/20 08:02:31;;;;;;;1.27;0.95;;;;;;;18.74;41.04;101821.63;5146989;27;20092;-49
2022/04/20 08:04:56;;;;;;;0.63;0.63;;;;;;;18.58;41.21;101797.13;5112346;27;20152;-46
2022/04/20 08:07:21;;;;;;;1.13;0.75;;;;;;;18.73;40.86;101828.88;5129442;27;20034;-52
2022/04/20 08:09:46;;;;;;;1.05;0.70;;;;;;;18.72;41.23;101823.63;5147409;27;20034;-48
2022/04/20 08:12:11;;;;;;;0.70;0.70;;;;;;;18.72;41.08;101824.47;5147191;27;20051;-46
2022/04/20 08:14:37;;;;;;;0.80;0.70;;;;;;;18.72;40.65;101821.75;5128352;27;20038;-47
2022/04/20 08:17:02;;;;;;;1.10;0.82;;;;;;;18.70;40.87;101817.53;5147371;27;20064;-48
2022/04/20 08:19:28;;;;;;;0.98;0.70;;;;;;;18.72;40.67;101820.91;5129049;27;20019;-48
2022/04/20 08:21:54;;;;;;;0.70;0.70;;;;;;;18.61;41.04;101804.91;5128738;27;20028;-44
2022/04/20 08:24:19;;;;;;;0.82;0.80;;;;;;;18.72;40.72;101818.22;5128712;27;20020;-45
2022/04/20 08:26:44;;;;;;;1.15;0.80;;;;;;;18.58;40.92;101794.41;5110830;28;20027;-47
2022/04/20 08:29:10;;;;;;;1.00;0.90;;;;;;;18.72;41.20;101811.00;5127881;27;20031;-47
2022/04/20 08:31:36;;;;;;;1.17;0.70;;;;;;;18.72;41.06;101818.22;5147278;27;20480;-48
2022/04/20 08:34:02;;;;;;;0.63;0.63;;;;;;;18.71;41.27;101822.78;5128568;27;20035;-47
2022/04/20 08:36:27;;;;;;;0.73;0.70;;;;;;;18.71;40.95;101825.47;5147214;27;20130;-47
2022/04/20 08:38:53;;;;;;;1.02;0.82;;;;;;;18.64;41.17;101812.69;5146586;27;20094;-47
2022/04/20 08:41:18;;;;;;;0.60;0.60;;;;;;;18.64;41.01;101808.13;5146999;27;20049;-47
2022/04/20 08:43:43;;;;;;;0.85;0.80;;;;;;;18.76;41.00;101826.88;5145627;27;20031;-48
2022/04/20 08:46:10;;;;;;;0.70;0.60;;;;;;;18.76;41.13;101816.09;5141280;27;20463;-45
2022/04/20 08:48:35;;;;;;;0.73;0.73;;;;;;;18.77;41.08;101818.63;5146713;27;20079;-50
2022/04/20 08:51:03;;;;;;;0.88;0.70;;;;;;;18.78;41.05;101817.66;5145518;27;20019;-46
2022/04/20 08:53:29;;;;;;;1.13;0.80;;;;;;;18.78;40.78;101816.81;5146733;27;20043;-49
2022/04/20 08:57:15;;;;;;;0.65;0.63;;;;;;;18.78;40.95;101809.59;5128340;27;20268;-46
2022/04/20 08:58:46;;;;;;;1.23;0.90;;;;;;;18.79;40.89;101808.56;5139922;27;20110;-44
2022/04/20 09:01:13;;;;;;;1.25;0.73;;;;;;;18.80;40.90;101820.19;5128423;27;20034;-47
2022/04/20 09:03:38;;;;;;;0.90;0.77;;;;;;;18.80;40.94;101812.97;5111127;27;20042;-50
2022/04/20 09:06:05;;;;;;;0.70;0.70;;;;;;;18.81;40.97;101809.25;5146772;27;20027;-47
2022/04/20 09:08:30;;;;;;;0.63;0.63;;;;;;;18.69;40.70;101784.38;5127810;27;20019;-49
2022/04/20 09:10:57;;;;;;;0.85;0.70;;;;;;;18.82;40.81;101802.91;5146228;27;20065;-49
2022/04/20 09:13:38;;;;;;;0.70;0.70;;;;;;;18.83;40.62;101801.91;5145355;27;20094;-49
2022/04/20 09:16:10;;;;;;;0.95;0.60;;;;;;;18.83;40.88;101801.06;5128476;27;20049;-48
2022/04/20 09:18:37;;;;;;;1.15;0.70;;;;;;;18.82;40.83;101802.91;5146304;27;20031;-50
2022/04/20 09:21:12;;;;;;;0.98;0.88;;;;;;;18.83;40.86;101801.91;5127984;27;20059;-47
2022/04/20 09:23:38;;;;;;;0.82;0.60;;;;;;;18.82;40.64;101794.81;5127394;27;20059;-48
2022/04/20 09:26:12;;;;;;;0.65;0.65;;;;;;;18.84;40.70;101802.75;5127847;27;20030;-50
2022/04/20 09:28:38;;;;;;;0.60;0.60;;;;;;;18.84;41.04;101798.19;5109858;27;20088;-50
2022/04/20 09:31:04;;;;;;;0.70;0.60;;;;;;;18.83;40.75;101795.66;5145948;27;20282;-48
2022/04/20 09:33:49;;;;;;;1.00;0.73;;;;;;;18.85;40.86;101796.34;5146243;27;20026;-50
2022/04/20 09:36:15;;;;;;;0.70;0.70;;;;;;;18.84;40.57;101794.66;5145954;27;20031;-46
2022/04/20 09:39:00;;;;;;;0.82;0.70;;;;;;;18.85;40.60;101790.97;5126733;27;20019;-48
2022/04/20 09:41:26;;;;;;;1.00;0.60;;;;;;;18.75;40.79;101774.84;5145972;27;20034;-48
2022/04/20 09:44:07;;;;;;;0.70;0.70;;;;;;;18.77;40.73;101772.84;5126573;27;20015;-47
2022/04/20 09:49:16;;;;;;;1.92;0.75;;;;;;;18.85;40.73;101789.13;5145859;27;20038;-46
2022/04/20 09:51:42;;;;;;;0.52;0.52;;;;;;;18.84;40.96;101776.66;5144119;27;20031;-50
2022/04/20 09:54:24;;;;;;;0.73;0.60;;;;;;;18.86;40.99;101782.75;5144277;27;20023;-48
2022/04/20 09:57:07;;;;;;;0.73;0.65;;;;;;;18.87;40.74;101778.22;5145388;27;20034;-46
2022/04/20 09:59:32;;;;;;;0.60;0.60;;;;;;;18.85;41.05;101772.09;5106407;28;20019;-48
2022/04/20 10:01:57;;;;;;;0.75;0.73;;;;;;;18.85;40.96;101772.94;5124816;28;20031;-47
2022/04/20 10:04:23;;;;;;;1.45;0.80;;;;;;;18.85;40.96;101770.25;5125053;28;20085;-47
2022/04/20 10:06:48;;;;;;;0.65;0.65;;;;;;;18.86;41.06;101769.28;5124942;28;20019;-47
2022/04/20 10:09:13;;;;;;;0.85;0.80;;;;;;;18.86;41.11;101769.28;5089387;28;20028;-46
2022/04/20 10:11:39;;;;;;;0.70;0.70;;;;;;;18.77;41.00;101756.66;5106347;28;20168;-50
2022/04/20 10:16:52;;;;;;;0.90;0.70;;;;;;;18.88;40.94;101767.28;5124727;28;20034;-50
2022/04/20 10:19:27;;;;;;;;;;;;;;;18.84;41.37;101762.34;5127018;27;20453;-48
2022/04/20 10:21:53;;;;;;;0.90;0.77;;;;;;;18.86;41.04;101761.19;5126630;27;19972;-46
2022/04/20 10:24:24;;;;;;;0.82;0.68;;;;;;;18.87;41.31;101753.97;5126643;27;20046;-49
2022/04/20 10:26:50;;;;;;;0.88;0.82;;;;;;;18.86;41.12;101744.16;5144798;27;20027;-48
2022/04/20 10:29:33;;;;;;;1.65;0.85;;;;;;;18.89;41.36;101758.19;5126237;27;20484;-48
2022/04/20 10:32:00;;;;;;;0.80;0.80;;;;;;;18.89;41.17;101751.94;5126393;27;20042;-49
2022/04/20 10:34:26;;;;;;;0.65;0.63;;;;;;;18.87;41.35;101752.13;5126502;27;20034;-47
2022/04/20 10:36:59;;;;;;;0.70;0.70;;;;;;;18.90;41.54;101754.53;5126401;27;20049;-48
2022/04/20 10:39:27;;;;;;;0.77;0.60;;;;;;;18.79;41.36;101729.59;5119487;28;20051;-45
2022/04/20 10:42:32;;;;;;;0.90;0.90;;;;;;;18.92;41.39;101757.06;5105726;28;20042;-49
2022/04/20 10:45:05;;;;;;;2.15;0.70;;;;;;;18.90;41.35;101742.88;5144653;27;20023;-46
2022/04/20 10:47:32;;;;;;;0.55;0.55;;;;;;;18.92;41.19;101744.44;5126380;27;20020;-48
2022/04/20 10:50:22;;;;;;;0.85;0.80;;;;;;;18.93;41.32;101727.25;5126155;28;20030;-46
2022/04/20 10:52:52;;;;;;;0.75;0.70;;;;;;;18.93;41.52;101729.94;5125934;27;20023;-46
2022/04/20 10:55:17;;;;;;;;;;;;;;;18.90;41.64;101729.38;5127058;28;20053;-50
2022/04/20 10:57:45;;;;;;;0.60;0.60;;;;;;;18.90;41.50;101726.69;5108099;27;19978;-46
2022/04/20 11:00:16;;;;;;;0.60;0.60;;;;;;;18.91;41.55;101713.09;5126579;27;20019;-47
2022/04/20 11:02:55;;;;;;;0.68;0.68;;;;;;;18.94;41.40;101720.00;5144360;27;20074;-46
2022/04/20 11:05:21;;;;;;;0.65;0.60;;;;;;;18.85;41.78;101702.06;5144745;28;20030;-50
2022/04/20 11:07:59;;;;;;;0.68;0.65;;;;;;;18.96;41.52;101712.66;5144198;28;20031;-48
2022/04/20 11:10:24;;;;;;;0.50;0.50;;;;;;;18.87;41.25;101689.28;5144224;28;20023;-49
2022/04/20 11:18:42;;;;;;;1.33;0.90;;;;;;;18.98;41.57;101699.84;5146047;27;20056;-51
2022/04/20 11:21:07;;;;;;;0.68;0.60;;;;;;;18.96;41.83;101689.25;5129045;28;20015;-51
2022/04/20 11:23:52;;;;;;;0.60;0.60;;;;;;;18.98;41.70;101684.53;5125779;28;20031;-50
2022/04/20 11:26:20;;;;;;;0.50;0.50;;;;;;;18.98;41.57;101686.38;5125811;28;20027;-52
2022/04/20 11:28:47;;;;;;;0.57;0.57;;;;;;;18.87;41.65;101665.03;5143682;28;20027;-50
2022/04/20 11:31:12;;;;;;;0.52;0.52;;;;;;;18.98;41.89;101692.63;5125811;28;20310;-50
2022/04/20 11:33:38;;;;;;;0.95;0.70;;;;;;;18.91;41.82;101677.22;5108513;28;20471;-46
2022/04/20 11:36:04;;;;;;;1.00;0.70;;;;;;;19.00;41.77;101686.25;5125833;28;20079;-52
2022/04/20 11:38:44;;;;;;;0.65;0.60;;;;;;;19.03;41.57;101686.81;5125480;28;20023;-52
2022/04/20 11:41:10;;;;;;;0.60;0.60;;;;;;;18.92;41.78;101668.97;5088281;28;20067;-47
2022/04/20 11:43:36;;;;;;;1.85;0.90;;;;;;;18.90;41.72;101665.59;5131784;28;20016;-51
2022/04/20 11:46:03;;;;;;;0.63;0.60;;;;;;;19.02;41.76;101679.69;5144282;28;20039;-47
2022/04/20 11:48:29;;;;;;;0.60;0.60;;;;;;;19.03;41.75;101680.53;5144144;27;20019;-48
2022/04/20 11:51:00;;;;;;;0.93;0.70;;;;;;;19.04;41.99;101680.41;5143043;28;20031;-46
2022/04/20 11:53:33;;;;;;;1.00;0.60;;;;;;;19.06;41.70;101672.16;5125582;28;20082;-45